Latest Weather Observations for King Island Airport

IDT60801

Issued at 7:35 am EST Friday 25 April 2014 (issued every 30 minutes, with the page automatically refreshed every 10 minutes)

About weather observations | Map of weather stations | Latest weather observations for TAS | Other Formats
Station Details ID: 098017 Name: KING ISLAND AIRPORT Lat: -39.88 Lon: 143.88 Height: 37.0 m
Data from the previous 72 hours. | See also: Recent months at King Island Airport
Date/Time
EST
Temp
°C
App
Temp
°C
Dew
Point
Rel
Hum
%
Delta-T
°C
Wind Press
QNH
hPa
Press
MSL
hPa
Rain
since 9 am
mm
Dir
 
Spd
km/h
Gust
km/h
Spd
kts
Gust
kts
25/07:30am 6.6 3.6 4.1 84 1.1 NE 9 11 5 6 1019.6 - 0.2
25/07:00am 7.6 3.9 4.6 81 1.3 NE 13 19 7 10 1019.6 - 0.2
25/06:30am 7.4 4.5 4.7 83 1.2 ENE 9 11 5 6 1019.9 - 0.2
25/06:00am 7.6 4.8 5.2 85 1.1 NE 9 11 5 6 1019.9 1019.9 0.2
25/05:30am 8.2 5.9 5.8 85 1.1 E 7 7 4 4 1019.9 - 0.2
25/05:00am 9.4 8.5 6.1 80 1.5 CALM 0 0 0 0 1020.1 - 0.2
25/04:30am 9.4 7.6 7.2 86 1.0 E 6 7 3 4 1020.1 - 0.2
25/04:00am 9.5 7.7 7.1 85 1.1 E 6 7 3 4 1020.0 - 0.2
25/03:30am 9.3 7.3 7.1 86 1.0 E 7 7 4 4 1020.0 - 0.2
25/03:00am 9.2 7.2 7.2 87 0.9 E 7 7 4 4 1020.3 1020.3 0.2
25/02:30am 9.2 7.1 6.8 85 1.1 E 7 7 4 4 1020.5 - 0.2
25/02:00am 9.0 7.0 7.0 87 0.9 E 7 9 4 5 1020.5 - 0.2
25/01:30am 9.3 7.4 6.9 85 1.1 ESE 6 7 3 4 1020.7 - 0.2
25/01:00am 9.1 7.0 6.7 85 1.1 E 7 7 4 4 1020.6 - 0.2
25/12:30am 9.0 7.0 7.0 87 0.9 ESE 7 9 4 5 1020.7 - 0.2
25/12:00am 9.0 8.3 7.0 87 0.9 E 0 0 0 0 1020.6 1020.6 0.2
 
Date/Time
EST
Temp
°C
App
Temp
°C
Dew
Point
Rel
Hum
%
Delta-T
°C
Wind Press
QNH
hPa
Press
MSL
hPa
Rain
since 9 am
mm
Dir
 
Spd
km/h
Gust
km/h
Spd
kts
Gust
kts
24/11:30pm 10.3 9.5 6.3 76 1.9 CALM 0 0 0 0 1020.8 - 0.2
24/11:00pm 11.6 8.9 5.5 66 2.8 W 9 11 5 6 1020.9 - 0.2
24/10:30pm 11.7 8.9 5.3 65 3.0 W 9 11 5 6 1021.0 - 0.2
24/10:00pm 11.8 9.0 5.2 64 3.0 W 9 11 5 6 1021.1 - 0.2
24/09:30pm 11.9 8.5 5.8 66 2.8 W 13 17 7 9 1021.0 - 0.2
24/09:00pm 11.9 8.6 6.2 68 2.7 W 13 19 7 10 1020.8 1020.8 0.2
24/08:30pm 11.6 8.9 5.5 66 2.8 WSW 9 11 5 6 1020.4 - 0.2
24/08:00pm 11.7 8.5 5.1 64 3.0 WSW 11 15 6 8 1020.2 - 0.2
24/07:30pm 11.0 7.8 3.3 59 3.4 SW 9 11 5 6 1019.9 - 0.2
24/07:00pm 11.3 7.0 3.3 58 3.5 SW 15 20 8 11 1019.6 - 0.2
24/06:30pm 11.1 7.3 3.9 61 3.2 SW 13 19 7 10 1019.1 - 0.2
24/06:00pm 11.0 7.3 4.2 63 3.0 WSW 13 17 7 9 1018.7 1018.7 0.2
24/05:30pm 11.4 6.3 3.9 60 3.3 WSW 20 26 11 14 1018.3 - 0.2
24/05:00pm 12.1 7.4 5.3 63 3.1 WSW 19 26 10 14 1018.1 - 0.2
24/04:30pm 12.0 6.7 5.0 62 3.2 SW 22 33 12 18 1017.8 - 0.2
24/04:00pm 12.1 5.9 4.3 59 3.5 SW 26 33 14 18 1017.6 - 0.2
24/03:30pm 12.7 7.0 4.9 59 3.6 WSW 24 33 13 18 1017.4 - 0.2
24/03:00pm 12.7 6.1 4.4 57 3.8 SW 28 37 15 20 1016.8 1016.9 0.2
24/02:30pm 13.5 6.4 3.3 50 4.6 WSW 30 39 16 21 1016.4 - 0.2
24/02:00pm 13.6 6.6 4.2 53 4.3 SW 30 41 16 22 1016.2 - 0.2
24/01:30pm 12.2 5.1 5.4 63 3.2 SW 32 44 17 24 1016.1 - 0.2
24/01:00pm 12.7 5.2 4.7 58 3.7 SW 33 44 18 24 1015.7 - 0.2
24/12:30pm 13.3 5.6 3.4 51 4.4 WSW 33 48 18 26 1015.5 - 0.2
24/12:00pm 12.7 5.1 5.6 62 3.3 SW 35 54 19 29 1015.4 1015.4 0.2
24/11:31am 12.5 4.7 6.5 67 2.9 SW 37 56 20 30 1015.3 - 0.2
24/11:30am 12.2 3.9 6.3 67 2.8 SW 39 56 21 30 1015.4 - 0.2
24/11:00am 13.4 4.3 2.0 46 5.0 WSW 39 57 21 31 1014.8 - 0.2
24/10:36am 13.0 3.8 3.4 52 4.3 WSW 41 61 22 33 1014.4 - 0.2
24/10:30am 13.1 3.9 3.5 52 4.3 WSW 41 54 22 29 1014.2 - 0.0
24/10:00am 11.3 0.7 3.1 57 3.6 WSW 48 69 26 37 1013.9 - 0.0
24/09:35am 13.2 4.2 4.6 56 4.0 WSW 41 59 22 32 1013.5 - 0.0
24/09:30am 12.7 3.9 3.6 54 4.1 WSW 39 56 21 30 1013.4 - 0.0
24/09:00am 12.2 2.7 3.7 56 3.8 WSW 43 63 23 34 1012.8 1012.8 8.2
24/08:30am 12.8 3.7 4.0 55 4.0 WSW 41 59 22 32 1012.1 - 8.2
24/08:09am 12.4 3.8 4.9 60 3.4 WSW 39 57 21 31 1011.8 - 8.2
24/08:00am 12.0 4.2 4.7 61 3.3 WSW 35 52 19 28 1011.6 - 8.2
24/07:30am 11.3 0.8 5.4 67 2.7 WSW 50 74 27 40 1010.9 - 8.2
24/07:02am 12.0 2.9 3.8 57 3.7 WSW 41 59 22 32 1010.1 - 8.2
24/07:00am 12.1 2.7 4.3 59 3.5 WSW 43 59 23 32 1010.0 - 8.2
24/06:53am 12.0 3.2 3.8 57 3.7 WSW 39 59 21 32 1009.9 - 8.2
24/06:30am 12.3 2.7 4.3 58 3.6 WSW 44 59 24 32 1009.3 - 8.2
24/06:00am 12.5 4.4 7.0 69 2.7 WSW 39 67 21 36 1008.7 1008.7 8.2
24/05:42am 12.9 4.7 6.5 65 3.1 WSW 39 57 21 31 1008.3 - 8.2
24/05:30am 13.1 5.0 7.1 67 2.9 WSW 39 52 21 28 1007.9 - 8.2
24/05:00am 12.9 5.3 7.4 69 2.7 WSW 37 52 20 28 1007.1 - 8.2
24/04:30am 12.2 7.6 11.1 93 0.6 W 26 37 14 20 1006.5 - 8.2
24/04:00am 11.5 7.4 10.2 92 0.7 WSW 22 33 12 18 1006.3 - 7.4
24/03:31am 11.8 6.0 10.9 94 0.5 W 32 46 17 25 1006.1 - 5.4
24/03:30am 11.7 5.9 10.8 94 0.5 W 32 46 17 25 1006.1 - 5.2
24/03:21am 11.7 5.9 10.9 95 0.4 W 32 48 17 26 1005.9 - 5.0
24/03:00am 12.0 5.1 10.4 90 0.8 W 37 70 20 38 1006.3 1006.3 2.2
24/02:59am 12.1 5.2 10.2 88 1.0 W 37 70 20 38 1006.3 - 1.0
24/02:55am 13.5 5.2 9.9 79 1.9 W 44 72 24 39 1006.4 - 0.0
24/02:30am 15.7 6.6 12.6 82 1.7 NW 52 72 28 39 1005.6 - 0.0
24/02:23am 15.5 6.8 12.4 82 1.7 NW 50 72 27 39 1005.7 - 0.0
24/02:00am 15.8 7.1 12.5 81 1.8 NW 50 63 27 34 1005.8 - 0.0
24/01:50am 15.7 6.5 12.3 80 1.9 NW 52 70 28 38 1005.9 - 0.0
24/01:30am 15.7 6.0 11.7 77 2.2 NW 54 69 29 37 1006.2 - 0.0
24/01:22am 15.9 7.8 12.1 78 2.1 NW 46 65 25 35 1006.3 - 0.0
24/01:00am 15.8 6.9 12.0 78 2.1 NNW 50 63 27 34 1006.6 - 0.0
24/12:30am 15.5 8.1 11.1 75 2.4 NNW 41 57 22 31 1006.9 - 0.0
24/12:00am 16.0 7.5 10.7 71 2.8 NNW 46 61 25 33 1007.4 1007.4 0.0
 
Date/Time
EST
Temp
°C
App
Temp
°C
Dew
Point
Rel
Hum
%
Delta-T
°C
Wind Press
QNH
hPa
Press
MSL
hPa
Rain
since 9 am
mm
Dir
 
Spd
km/h
Gust
km/h
Spd
kts
Gust
kts
23/11:30pm 15.9 8.4 10.9 72 2.7 NNW 41 56 22 30 1007.9 - 0.0
23/11:00pm 15.5 9.7 10.9 74 2.4 NNW 32 44 17 24 1008.4 - 0.0
23/10:30pm 15.5 9.8 11.1 75 2.4 N 32 43 17 23 1008.9 - 0.0
23/10:00pm 15.1 8.8 10.9 76 2.2 NNW 35 46 19 25 1009.3 - 0.0
23/09:30pm 15.1 9.2 10.3 73 2.5 NNW 32 41 17 22 1009.6 - 0.0
23/09:00pm 15.2 8.5 9.8 70 2.8 NNW 35 44 19 24 1010.0 1010.0 0.0
23/08:30pm 14.8 8.3 10.4 75 2.3 NNW 35 46 19 25 1010.3 - 0.0
23/08:00pm 15.0 8.6 10.6 75 2.3 NNW 35 50 19 27 1010.6 - 0.0
23/07:30pm 15.1 8.5 10.1 72 2.6 NNW 35 46 19 25 1010.7 - 0.0
23/07:00pm 14.8 8.7 10.6 76 2.2 NW 33 44 18 24 1010.8 - 0.0
23/06:30pm 14.6 8.4 10.2 75 2.3 NW 33 44 18 24 1011.0 - 0.0
23/06:00pm 14.7 8.2 10.3 75 2.3 NW 35 41 19 22 1011.1 1011.1 0.0
23/05:30pm 14.8 8.1 9.6 71 2.7 NW 35 43 19 23 1011.1 - 0.0
23/05:00pm 15.0 9.1 10.4 74 2.4 NW 32 43 17 23 1011.2 - 0.0
23/04:30pm 15.0 8.9 10.4 74 2.4 NW 33 43 18 23 1011.5 - 0.0
23/04:00pm 15.1 8.6 10.5 74 2.4 NW 35 41 19 22 1011.7 - 0.0
23/03:30pm 15.9 9.4 10.2 69 3.0 NNW 35 43 19 23 1011.8 - 0.0
23/03:00pm 15.6 9.5 10.6 72 2.7 NW 33 41 18 22 1012.0 1012.0 0.0
23/02:30pm 15.5 8.5 11.3 76 2.3 NNW 39 50 21 27 1012.3 - 0.0
23/02:00pm 15.3 9.0 10.9 75 2.3 NNW 35 50 19 27 1012.5 - 0.0
23/01:30pm 16.3 10.0 11.0 71 2.8 NNW 35 41 19 22 1012.7 - 0.0
23/01:00pm 16.2 9.7 8.9 62 3.8 NW 33 39 18 21 1013.0 - 0.0
23/12:30pm 15.5 9.3 8.0 61 3.8 NNW 30 35 16 19 1013.4 - 0.0
23/12:00pm 15.2 8.6 7.7 61 3.7 NW 32 39 17 21 1014.0 1014.0 0.0
23/11:30am 15.9 9.5 9.3 65 3.4 NW 33 44 18 24 1014.5 - 0.0
23/11:00am 16.0 10.1 11.0 72 2.7 NW 33 39 18 21 1014.8 - 0.0
23/10:30am 16.0 10.8 10.1 68 3.1 NW 28 33 15 18 1015.1 - 0.0
23/10:00am 15.5 10.7 10.3 71 2.7 NW 26 33 14 18 1015.2 - 0.0
23/09:30am 15.1 11.2 10.9 76 2.2 NW 22 28 12 15 1015.2 - 0.0
23/09:00am 13.4 13.1 12.6 95 0.4 NE 6 19 3 10 1015.3 1015.3 1.0
23/08:30am 11.2 10.2 11.0 99 0.1 E 7 9 4 5 1015.3 - 1.0
23/08:00am 9.7 7.9 9.4 98 0.1 E 9 9 5 5 1015.5 - 1.0
23/07:30am 9.2 7.3 8.9 98 0.1 E 9 9 5 5 1015.4 - 1.0
23/07:00am 9.9 8.7 9.6 98 0.2 SE 6 9 3 5 1015.3 - 1.0
23/06:30am 10.3 9.6 10.1 99 0.1 W 4 13 2 7 1015.3 - 1.0
23/06:00am 9.4 7.6 9.3 99 0.0 ESE 9 11 5 6 1015.1 1015.1 0.8
23/05:30am 8.5 6.0 8.4 99 0.0 ESE 11 11 6 6 1015.2 - 0.8
23/05:00am 7.8 7.2 7.5 98 0.1 CALM 0 7 0 4 1015.3 - 0.8
23/04:57am 7.5 6.9 7.2 98 0.1 CALM 0 0 0 0 1015.3 - 0.8
23/04:40am 8.1 6.2 7.7 97 0.2 E 7 7 4 4 1015.3 - 0.8
23/04:31am 9.0 7.4 8.7 98 0.1 E 7 7 4 4 1015.3 - 0.8
23/04:30am 9.1 7.5 8.8 98 0.1 E 7 7 4 4 1015.3 - 0.8
23/04:01am 8.9 7.8 8.3 96 0.3 NNE 4 9 2 5 1015.2 - 0.8
23/04:00am 9.0 8.3 8.4 96 0.3 NNE 2 9 1 5 1015.2 - 0.8
23/03:30am 10.8 9.6 10.2 96 0.3 S 7 9 4 5 1015.1 - 0.8
23/03:00am 10.8 9.5 9.9 94 0.5 SE 7 9 4 5 1015.3 1015.3 0.8
23/02:30am 12.2 11.3 10.6 90 0.8 SW 6 19 3 10 1015.7 - 0.6
23/02:00am 11.9 10.6 9.3 84 1.3 WSW 6 7 3 4 1015.8 - 0.4
23/01:30am 12.7 10.5 9.5 81 1.6 W 11 15 6 8 1016.1 - 0.4
23/01:00am 12.2 11.9 11.4 95 0.4 NE 4 26 2 14 1016.4 - 0.4
23/12:30am 9.7 9.2 8.0 89 0.8 CALM 0 7 0 4 1016.5 - 0.4
23/12:00am 12.0 10.4 10.1 88 1.0 W 9 13 5 7 1016.5 1016.6 0.4
 
Date/Time
EST
Temp
°C
App
Temp
°C
Dew
Point
Rel
Hum
%
Delta-T
°C
Wind Press
QNH
hPa
Press
MSL
hPa
Rain
since 9 am
mm
Dir
 
Spd
km/h
Gust
km/h
Spd
kts
Gust
kts
22/11:30pm 12.2 10.5 9.8 85 1.2 SW 9 11 5 6 1016.6 - 0.4
22/11:00pm 13.2 10.6 10.7 85 1.3 WSW 15 17 8 9 1017.0 - 0.4
22/10:30pm 12.9 10.4 8.4 74 2.2 W 11 15 6 8 1017.0 - 0.4
22/10:00pm 13.1 9.8 8.2 72 2.4 W 15 19 8 10 1017.0 - 0.2
22/09:30pm 13.4 10.4 9.1 75 2.2 W 15 19 8 10 1016.6 - 0.2
22/09:00pm 13.6 10.3 9.5 76 2.1 W 17 22 9 12 1016.5 1016.6 0.2
22/08:30pm 13.2 9.7 8.7 74 2.3 W 17 20 9 11 1016.3 - 0.2
22/08:00pm 14.0 10.3 9.6 75 2.3 W 19 26 10 14 1016.2 - 0.2
22/07:30pm 13.7 9.4 9.4 75 2.2 W 22 32 12 17 1016.0 - 0.2
22/07:00pm 13.7 10.8 11.0 84 1.4 W 17 32 9 17 1015.8 - 0.2
22/06:30pm 13.4 10.2 9.8 79 1.9 W 17 24 9 13 1015.5 - 0.2
22/06:00pm 12.9 10.7 10.8 87 1.1 W 13 17 7 9 1015.2 1015.2 0.0
22/05:30pm 13.9 11.0 10.9 82 1.6 W 17 24 9 13 1014.9 - 0.0
22/05:00pm 14.2 11.0 10.0 76 2.2 W 17 20 9 11 1014.6 - 0.0
22/04:30pm 14.9 11.2 10.3 74 2.4 WSW 20 30 11 16 1014.6 - 0.0
22/04:00pm 16.1 11.6 8.6 61 3.8 W 22 32 12 17 1014.4 - 0.0
22/03:30pm 15.6 11.3 9.3 66 3.3 W 22 32 12 17 1014.3 - 0.0
22/03:00pm 15.6 11.1 8.4 62 3.6 W 22 33 12 18 1014.2 1014.2 0.0
22/02:30pm 16.3 11.5 8.8 61 3.9 W 24 32 13 17 1014.0 - 0.0
22/02:00pm 16.2 10.8 8.2 59 4.1 WSW 26 37 14 20 1013.9 - 0.0
22/01:30pm 16.5 11.8 9.2 62 3.8 W 24 32 13 17 1013.8 - 0.0
22/01:00pm 16.2 10.9 8.4 60 4.0 W 26 35 14 19 1013.9 - 0.0
22/12:30pm 16.2 11.0 8.9 62 3.8 W 26 33 14 18 1014.1 - 0.0
22/12:00pm 16.1 11.8 9.3 64 3.5 WSW 22 32 12 17 1014.0 1014.0 0.0
22/11:30am 15.7 10.8 8.4 62 3.7 WSW 24 32 13 17 1014.0 - 0.0
22/11:00am 15.8 11.1 9.2 65 3.4 WSW 24 33 13 18 1013.8 - 0.0
22/10:30am 15.6 11.0 9.5 67 3.2 WSW 24 30 13 16 1013.5 - 0.0
22/10:00am 15.4 10.8 9.5 68 3.1 WSW 24 35 13 19 1013.3 - 0.0
22/09:30am 15.0 10.4 9.6 70 2.8 WSW 24 32 13 17 1013.1 - 0.0
22/09:00am 14.7 10.6 10.1 74 2.4 WSW 22 35 12 19 1012.7 1012.7 4.8
22/08:30am 14.7 10.5 11.1 79 1.9 WSW 24 32 13 17 1012.2 - 4.8
22/08:00am 14.5 10.4 11.6 83 1.6 SW 24 33 13 18 1011.8 - 4.8

Other Formats:

Comma delimited format used in spreadsheet applications
http://www.bom.gov.au/fwo/IDT60801/IDT60801.94850.axf

JavaScript Object Notation format (JSON) in row-major order
http://www.bom.gov.au/fwo/IDT60801/IDT60801.94850.json